KBOI/BOI METAR and TAF weather

Enter ICAO airport designator
Station Type Date Time Source
KBOI METAR 2018/10/21 04:53 UTC NOAA

KBOI 210453Z 16003KT 7SM CLR 11/03 A3011 RMK AO2 SLP191 T01060033


Station Type Date Time Source
KBOI Decoded METAR 2018/10/21 04:53 UTC NOAA

BOISE AIR TERMINAL, ID, United States (KBOI) 43-34N 116-14W 875M
Oct 21, 2018 - 12:53 AM EDT / 2018.10.21 0453 UTC
Wind: from the SSE (160 degrees) at 3 MPH (3 KT):0
Visibility: 7 mile(s):0
Sky conditions: clear
Temperature: 51.1 F (10.6 C)
Dew Point: 37.9 F (3.3 C)
Relative Humidity: 60%
Pressure (altimeter): 30.11 in. Hg (1019 hPa)
ob: KBOI 210453Z 16003KT 7SM CLR 11/03 A3011 RMK AO2 SLP191 T01060033
cycle: 5

Station Type Date Time Source
KBOI TAF 2018/10/21 06:22 UTC NOAA

TAF KBOI 210520Z 2106/2206 14005KT 6SM HZ SKC
FM212000 VRB03KT P6SM SKC


Example: see airport list